sensor_id;sensor_type;location;lat;lon;timestamp;temperature;humidity
2893;DHT22;1456;51.840;12.184;2024-01-07T00:00:09;0.20;99.90
2893;DHT22;1456;51.840;12.184;2024-01-07T00:02:34;0.30;99.90
2893;DHT22;1456;51.840;12.184;2024-01-07T00:05:01;0.30;99.90
2893;DHT22;1456;51.840;12.184;2024-01-07T00:07:27;0.40;99.90
2893;DHT22;1456;51.840;12.184;2024-01-07T00:09:53;0.50;99.90
2893;DHT22;1456;51.840;12.184;2024-01-07T00:12:18;0.40;99.90
2893;DHT22;1456;51.840;12.184;2024-01-07T00:14:44;0.40;99.90
2893;DHT22;1456;51.840;12.184;2024-01-07T00:17:10;0.50;99.90
2893;DHT22;1456;51.840;12.184;2024-01-07T00:19:35;0.40;99.90
2893;DHT22;1456;51.840;12.184;2024-01-07T00:22:03;0.50;99.90
2893;DHT22;1456;51.840;12.184;2024-01-07T00:24:28;0.30;99.90
2893;DHT22;1456;51.840;12.184;2024-01-07T00:26:55;0.30;99.90
2893;DHT22;1456;51.840;12.184;2024-01-07T00:29:20;0.20;99.90
2893;DHT22;1456;51.840;12.184;2024-01-07T00:31:46;0.10;99.90
2893;DHT22;1456;51.840;12.184;2024-01-07T00:34:12;0.10;99.90
2893;DHT22;1456;51.840;12.184;2024-01-07T00:36:37;0.00;99.90
2893;DHT22;1456;51.840;12.184;2024-01-07T00:39:03;0.20;99.90
2893;DHT22;1456;51.840;12.184;2024-01-07T00:41:29;0.20;99.90
2893;DHT22;1456;51.840;12.184;2024-01-07T00:43:55;0.10;99.90
2893;DHT22;1456;51.840;12.184;2024-01-07T00:46:21;0.20;99.90
2893;DHT22;1456;51.840;12.184;2024-01-07T00:48:47;0.10;99.90
2893;DHT22;1456;51.840;12.184;2024-01-07T00:51:13;0.10;99.90
2893;DHT22;1456;51.840;12.184;2024-01-07T00:53:38;0.00;99.90
2893;DHT22;1456;51.840;12.184;2024-01-07T00:56:05;0.00;99.90
2893;DHT22;1456;51.840;12.184;2024-01-07T00:58:31;-0.10;99.90
2893;DHT22;1456;51.840;12.184;2024-01-07T01:00:56;0.00;99.90
2893;DHT22;1456;51.840;12.184;2024-01-07T01:03:22;-0.20;99.90
2893;DHT22;1456;51.840;12.184;2024-01-07T01:05:47;-0.20;99.90
2893;DHT22;1456;51.840;12.184;2024-01-07T01:08:13;-0.20;99.90
2893;DHT22;1456;51.840;12.184;2024-01-07T01:10:39;-0.10;99.90
2893;DHT22;1456;51.840;12.184;2024-01-07T01:13:04;-0.10;99.90
2893;DHT22;1456;51.840;12.184;2024-01-07T01:15:30;-0.10;99.90
2893;DHT22;1456;51.840;12.184;2024-01-07T01:17:56;-0.20;99.90
2893;DHT22;1456;51.840;12.184;2024-01-07T01:20:21;-0.20;99.90
2893;DHT22;1456;51.840;12.184;2024-01-07T01:22:47;-0.10;99.90
2893;DHT22;1456;51.840;12.184;2024-01-07T01:25:13;-0.20;99.90
2893;DHT22;1456;51.840;12.184;2024-01-07T01:27:39;-0.30;99.90
2893;DHT22;1456;51.840;12.184;2024-01-07T01:30:05;-0.20;99.90
2893;DHT22;1456;51.840;12.184;2024-01-07T01:32:31;-0.40;99.90
2893;DHT22;1456;51.840;12.184;2024-01-07T01:34:56;-0.30;99.90
2893;DHT22;1456;51.840;12.184;2024-01-07T01:37:22;-0.30;99.90
2893;DHT22;1456;51.840;12.184;2024-01-07T01:39:47;-0.20;99.90
2893;DHT22;1456;51.840;12.184;2024-01-07T01:42:13;-0.10;99.90
2893;DHT22;1456;51.840;12.184;2024-01-07T01:44:39;-0.10;99.90
2893;DHT22;1456;51.840;12.184;2024-01-07T01:47:06;-0.10;99.90
2893;DHT22;1456;51.840;12.184;2024-01-07T01:49:32;0.10;99.90
2893;DHT22;1456;51.840;12.184;2024-01-07T01:51:58;0.00;99.90
2893;DHT22;1456;51.840;12.184;2024-01-07T01:54:26;-0.10;99.90
2893;DHT22;1456;51.840;12.184;2024-01-07T01:56:52;-0.30;99.90
2893;DHT22;1456;51.840;12.184;2024-01-07T01:59:18;-0.30;99.90
2893;DHT22;1456;51.840;12.184;2024-01-07T02:01:45;-0.40;99.90
2893;DHT22;1456;51.840;12.184;2024-01-07T02:04:10;-0.30;99.90
2893;DHT22;1456;51.840;12.184;2024-01-07T02:06:36;-0.40;99.90
2893;DHT22;1456;51.840;12.184;2024-01-07T02:09:03;-0.50;99.90
2893;DHT22;1456;51.840;12.184;2024-01-07T02:11:29;-0.40;99.90
2893;DHT22;1456;51.840;12.184;2024-01-07T02:13:54;-0.30;99.90
2893;DHT22;1456;51.840;12.184;2024-01-07T02:16:20;-0.40;99.90
2893;DHT22;1456;51.840;12.184;2024-01-07T02:18:46;-0.20;99.90
2893;DHT22;1456;51.840;12.184;2024-01-07T02:21:13;-0.20;99.90
2893;DHT22;1456;51.840;12.184;2024-01-07T02:23:40;-0.40;99.90
2893;DHT22;1456;51.840;12.184;2024-01-07T02:26:05;-0.30;99.90
2893;DHT22;1456;51.840;12.184;2024-01-07T02:28:32;-0.30;99.90
2893;DHT22;1456;51.840;12.184;2024-01-07T02:30:58;-0.10;99.90
2893;DHT22;1456;51.840;12.184;2024-01-07T02:33:23;-0.30;99.90
2893;DHT22;1456;51.840;12.184;2024-01-07T02:35:49;-0.20;99.90
2893;DHT22;1456;51.840;12.184;2024-01-07T02:38:15;-0.30;99.90
2893;DHT22;1456;51.840;12.184;2024-01-07T02:40:41;-0.40;99.90
2893;DHT22;1456;51.840;12.184;2024-01-07T02:43:07;-0.40;99.90
2893;DHT22;1456;51.840;12.184;2024-01-07T02:45:33;-0.20;99.90
2893;DHT22;1456;51.840;12.184;2024-01-07T02:47:58;-0.40;99.90
2893;DHT22;1456;51.840;12.184;2024-01-07T02:50:24;-0.50;99.90
2893;DHT22;1456;51.840;12.184;2024-01-07T02:52:50;-0.50;99.90
2893;DHT22;1456;51.840;12.184;2024-01-07T02:55:16;-0.50;99.90
2893;DHT22;1456;51.840;12.184;2024-01-07T02:57:41;-0.50;99.90
2893;DHT22;1456;51.840;12.184;2024-01-07T03:00:07;-0.30;99.90
2893;DHT22;1456;51.840;12.184;2024-01-07T03:02:33;-0.40;99.90
2893;DHT22;1456;51.840;12.184;2024-01-07T03:04:58;-0.40;99.90
2893;DHT22;1456;51.840;12.184;2024-01-07T03:07:25;-0.40;99.90
2893;DHT22;1456;51.840;12.184;2024-01-07T03:09:50;-0.20;99.90
2893;DHT22;1456;51.840;12.184;2024-01-07T03:12:16;-0.30;99.90
2893;DHT22;1456;51.840;12.184;2024-01-07T03:14:42;-0.40;99.90
2893;DHT22;1456;51.840;12.184;2024-01-07T03:17:10;-0.50;99.90
2893;DHT22;1456;51.840;12.184;2024-01-07T03:19:35;-0.40;99.90
2893;DHT22;1456;51.840;12.184;2024-01-07T03:22:04;-0.50;99.90
2893;DHT22;1456;51.840;12.184;2024-01-07T03:24:31;-0.50;99.90
2893;DHT22;1456;51.840;12.184;2024-01-07T03:26:56;-0.40;99.90
2893;DHT22;1456;51.840;12.184;2024-01-07T03:29:22;-0.50;99.90
2893;DHT22;1456;51.840;12.184;2024-01-07T03:31:48;-0.30;99.90
2893;DHT22;1456;51.840;12.184;2024-01-07T03:34:13;-0.30;99.90
2893;DHT22;1456;51.840;12.184;2024-01-07T03:36:39;-0.30;99.90
2893;DHT22;1456;51.840;12.184;2024-01-07T03:39:04;-0.30;99.90
2893;DHT22;1456;51.840;12.184;2024-01-07T03:41:30;-0.40;99.90
2893;DHT22;1456;51.840;12.184;2024-01-07T03:43:56;-0.50;99.90
2893;DHT22;1456;51.840;12.184;2024-01-07T03:46:22;-0.50;99.90
2893;DHT22;1456;51.840;12.184;2024-01-07T03:48:47;-0.50;99.90
2893;DHT22;1456;51.840;12.184;2024-01-07T03:51:13;-0.40;99.90
2893;DHT22;1456;51.840;12.184;2024-01-07T03:53:39;-0.40;99.90
2893;DHT22;1456;51.840;12.184;2024-01-07T03:56:05;-0.50;99.90
2893;DHT22;1456;51.840;12.184;2024-01-07T03:58:31;-0.50;99.90
2893;DHT22;1456;51.840;12.184;2024-01-07T04:00:56;-0.60;99.90
2893;DHT22;1456;51.840;12.184;2024-01-07T04:03:22;-0.60;99.90
2893;DHT22;1456;51.840;12.184;2024-01-07T04:05:47;-0.40;99.90
2893;DHT22;1456;51.840;12.184;2024-01-07T04:08:13;-0.40;99.90
2893;DHT22;1456;51.840;12.184;2024-01-07T04:10:41;-0.50;99.90
2893;DHT22;1456;51.840;12.184;2024-01-07T04:13:07;-0.40;99.90
2893;DHT22;1456;51.840;12.184;2024-01-07T04:15:33;-0.30;99.90
2893;DHT22;1456;51.840;12.184;2024-01-07T04:18:02;-0.40;99.90
2893;DHT22;1456;51.840;12.184;2024-01-07T04:20:29;-0.60;99.90
2893;DHT22;1456;51.840;12.184;2024-01-07T04:22:55;-0.50;99.90
2893;DHT22;1456;51.840;12.184;2024-01-07T04:25:20;-0.60;99.90
2893;DHT22;1456;51.840;12.184;2024-01-07T04:27:46;-0.60;99.90
2893;DHT22;1456;51.840;12.184;2024-01-07T04:30:12;-0.60;99.90
2893;DHT22;1456;51.840;12.184;2024-01-07T04:32:37;-0.50;99.90
2893;DHT22;1456;51.840;12.184;2024-01-07T04:35:03;-0.50;99.90
2893;DHT22;1456;51.840;12.184;2024-01-07T04:37:29;-0.60;99.90
2893;DHT22;1456;51.840;12.184;2024-01-07T04:39:54;-0.60;99.90
2893;DHT22;1456;51.840;12.184;2024-01-07T04:42:20;-0.50;99.90
2893;DHT22;1456;51.840;12.184;2024-01-07T04:44:46;-0.60;99.90
2893;DHT22;1456;51.840;12.184;2024-01-07T04:47:27;-0.70;99.90
2893;DHT22;1456;51.840;12.184;2024-01-07T04:49:54;-0.60;99.90
2893;DHT22;1456;51.840;12.184;2024-01-07T04:52:24;-0.70;99.90
2893;DHT22;1456;51.840;12.184;2024-01-07T04:54:54;-0.70;99.90
2893;DHT22;1456;51.840;12.184;2024-01-07T04:57:20;-0.60;99.90
2893;DHT22;1456;51.840;12.184;2024-01-07T04:59:50;-0.90;99.90
2893;DHT22;1456;51.840;12.184;2024-01-07T05:02:15;-0.90;99.90
2893;DHT22;1456;51.840;12.184;2024-01-07T05:04:42;-0.90;99.90
2893;DHT22;1456;51.840;12.184;2024-01-07T05:07:07;-0.90;99.90
2893;DHT22;1456;51.840;12.184;2024-01-07T05:09:33;-1.00;99.90
2893;DHT22;1456;51.840;12.184;2024-01-07T05:11:59;-1.00;99.90
2893;DHT22;1456;51.840;12.184;2024-01-07T05:14:25;-0.90;99.90
2893;DHT22;1456;51.840;12.184;2024-01-07T05:16:52;-0.70;99.90
2893;DHT22;1456;51.840;12.184;2024-01-07T05:19:18;-0.80;99.90
2893;DHT22;1456;51.840;12.184;2024-01-07T05:21:43;-0.80;99.90
2893;DHT22;1456;51.840;12.184;2024-01-07T05:24:09;-0.90;99.90
2893;DHT22;1456;51.840;12.184;2024-01-07T05:26:38;-0.80;99.90
2893;DHT22;1456;51.840;12.184;2024-01-07T05:29:05;-1.00;99.90
2893;DHT22;1456;51.840;12.184;2024-01-07T05:31:31;-0.90;99.90
2893;DHT22;1456;51.840;12.184;2024-01-07T05:33:56;-1.00;99.90
2893;DHT22;1456;51.840;12.184;2024-01-07T05:36:22;-1.00;99.90
2893;DHT22;1456;51.840;12.184;2024-01-07T05:38:48;-1.10;99.90
2893;DHT22;1456;51.840;12.184;2024-01-07T05:41:13;-1.00;99.90
2893;DHT22;1456;51.840;12.184;2024-01-07T05:43:39;-1.10;99.90
2893;DHT22;1456;51.840;12.184;2024-01-07T05:46:05;-1.10;99.90
2893;DHT22;1456;51.840;12.184;2024-01-07T05:48:43;-1.20;99.90
2893;DHT22;1456;51.840;12.184;2024-01-07T05:51:10;-1.20;99.90
2893;DHT22;1456;51.840;12.184;2024-01-07T05:53:35;-1.20;99.90
2893;DHT22;1456;51.840;12.184;2024-01-07T05:56:01;-0.90;99.90
2893;DHT22;1456;51.840;12.184;2024-01-07T05:58:27;-0.90;99.90
2893;DHT22;1456;51.840;12.184;2024-01-07T06:00:53;-0.90;99.90
2893;DHT22;1456;51.840;12.184;2024-01-07T06:03:18;-0.80;99.90
2893;DHT22;1456;51.840;12.184;2024-01-07T06:05:44;-0.90;99.90
2893;DHT22;1456;51.840;12.184;2024-01-07T06:08:09;-1.00;99.90
2893;DHT22;1456;51.840;12.184;2024-01-07T06:10:35;-0.90;99.90
2893;DHT22;1456;51.840;12.184;2024-01-07T06:13:01;-1.00;99.90
2893;DHT22;1456;51.840;12.184;2024-01-07T06:15:28;-0.90;99.90
2893;DHT22;1456;51.840;12.184;2024-01-07T06:17:54;-1.00;99.90
2893;DHT22;1456;51.840;12.184;2024-01-07T06:20:20;-1.30;99.90
2893;DHT22;1456;51.840;12.184;2024-01-07T06:22:46;-1.40;99.90
2893;DHT22;1456;51.840;12.184;2024-01-07T06:25:12;-1.50;99.90
2893;DHT22;1456;51.840;12.184;2024-01-07T06:27:41;-1.50;99.90
2893;DHT22;1456;51.840;12.184;2024-01-07T06:30:07;-1.60;99.90
2893;DHT22;1456;51.840;12.184;2024-01-07T06:32:33;-1.70;99.90
2893;DHT22;1456;51.840;12.184;2024-01-07T06:34:59;-1.80;99.90
2893;DHT22;1456;51.840;12.184;2024-01-07T06:37:25;-1.90;99.90
2893;DHT22;1456;51.840;12.184;2024-01-07T06:39:51;-2.00;99.90
2893;DHT22;1456;51.840;12.184;2024-01-07T06:42:17;-2.00;99.90
2893;DHT22;1456;51.840;12.184;2024-01-07T06:44:42;-2.00;99.90
2893;DHT22;1456;51.840;12.184;2024-01-07T06:47:08;-2.00;99.90
2893;DHT22;1456;51.840;12.184;2024-01-07T06:49:34;-2.00;99.90
2893;DHT22;1456;51.840;12.184;2024-01-07T06:51:59;-2.00;99.90
2893;DHT22;1456;51.840;12.184;2024-01-07T06:54:25;-2.00;99.90
2893;DHT22;1456;51.840;12.184;2024-01-07T06:56:51;-2.00;99.90
2893;DHT22;1456;51.840;12.184;2024-01-07T06:59:16;-1.80;99.90
2893;DHT22;1456;51.840;12.184;2024-01-07T07:01:42;-2.10;99.90
2893;DHT22;1456;51.840;12.184;2024-01-07T07:04:08;-2.10;99.90
2893;DHT22;1456;51.840;12.184;2024-01-07T07:06:33;-2.10;99.90
2893;DHT22;1456;51.840;12.184;2024-01-07T07:09:00;-2.10;99.90
2893;DHT22;1456;51.840;12.184;2024-01-07T07:11:25;-2.00;99.90
2893;DHT22;1456;51.840;12.184;2024-01-07T07:13:51;-1.90;99.90
2893;DHT22;1456;51.840;12.184;2024-01-07T07:16:17;-2.00;99.90
2893;DHT22;1456;51.840;12.184;2024-01-07T07:18:43;-2.10;99.90
2893;DHT22;1456;51.840;12.184;2024-01-07T07:21:08;-2.10;99.90
2893;DHT22;1456;51.840;12.184;2024-01-07T07:23:34;-2.10;99.90
2893;DHT22;1456;51.840;12.184;2024-01-07T07:26:00;-2.00;99.90
2893;DHT22;1456;51.840;12.184;2024-01-07T07:28:25;-2.00;99.90
2893;DHT22;1456;51.840;12.184;2024-01-07T07:30:52;-2.10;99.90
2893;DHT22;1456;51.840;12.184;2024-01-07T07:33:18;-2.00;99.90
2893;DHT22;1456;51.840;12.184;2024-01-07T07:35:43;-2.20;99.90
2893;DHT22;1456;51.840;12.184;2024-01-07T07:38:09;-2.10;99.90
2893;DHT22;1456;51.840;12.184;2024-01-07T07:40:35;-2.30;99.90
2893;DHT22;1456;51.840;12.184;2024-01-07T07:43:00;-2.20;99.90
2893;DHT22;1456;51.840;12.184;2024-01-07T07:45:26;-2.20;99.90
2893;DHT22;1456;51.840;12.184;2024-01-07T07:47:51;-2.20;99.90
2893;DHT22;1456;51.840;12.184;2024-01-07T07:50:17;-2.30;99.90
2893;DHT22;1456;51.840;12.184;2024-01-07T07:52:43;-2.40;99.90
2893;DHT22;1456;51.840;12.184;2024-01-07T07:55:11;-2.40;99.90
2893;DHT22;1456;51.840;12.184;2024-01-07T07:57:37;-2.30;99.90
2893;DHT22;1456;51.840;12.184;2024-01-07T08:00:07;-2.40;99.90
2893;DHT22;1456;51.840;12.184;2024-01-07T08:02:33;-2.40;99.90
2893;DHT22;1456;51.840;12.184;2024-01-07T08:04:59;-2.40;99.90
2893;DHT22;1456;51.840;12.184;2024-01-07T08:07:24;-2.40;99.90
2893;DHT22;1456;51.840;12.184;2024-01-07T08:09:50;-2.20;99.90
2893;DHT22;1456;51.840;12.184;2024-01-07T08:12:16;-2.40;99.90
2893;DHT22;1456;51.840;12.184;2024-01-07T08:14:42;-2.40;99.90
2893;DHT22;1456;51.840;12.184;2024-01-07T08:17:08;-2.30;99.90
2893;DHT22;1456;51.840;12.184;2024-01-07T08:19:33;-2.30;99.90
2893;DHT22;1456;51.840;12.184;2024-01-07T08:21:59;-2.30;99.90
2893;DHT22;1456;51.840;12.184;2024-01-07T08:24:25;-2.20;99.90
2893;DHT22;1456;51.840;12.184;2024-01-07T08:26:50;-2.00;99.90
2893;DHT22;1456;51.840;12.184;2024-01-07T08:29:17;-2.20;99.90
2893;DHT22;1456;51.840;12.184;2024-01-07T08:31:43;-2.00;99.90
2893;DHT22;1456;51.840;12.184;2024-01-07T08:34:08;-2.00;99.90
2893;DHT22;1456;51.840;12.184;2024-01-07T08:36:34;-2.00;99.90
2893;DHT22;1456;51.840;12.184;2024-01-07T08:39:00;-2.00;99.90
2893;DHT22;1456;51.840;12.184;2024-01-07T08:41:26;-1.90;99.90
2893;DHT22;1456;51.840;12.184;2024-01-07T08:43:51;-1.70;99.90
2893;DHT22;1456;51.840;12.184;2024-01-07T08:46:20;-1.80;99.90
2893;DHT22;1456;51.840;12.184;2024-01-07T08:48:45;-1.70;99.90
2893;DHT22;1456;51.840;12.184;2024-01-07T08:51:11;-1.60;99.90
2893;DHT22;1456;51.840;12.184;2024-01-07T08:53:37;-1.60;99.90
2893;DHT22;1456;51.840;12.184;2024-01-07T08:56:03;-1.50;99.90
2893;DHT22;1456;51.840;12.184;2024-01-07T08:58:28;-1.40;99.90
2893;DHT22;1456;51.840;12.184;2024-01-07T09:00:54;-1.20;99.90
2893;DHT22;1456;51.840;12.184;2024-01-07T09:03:20;-1.20;99.90
2893;DHT22;1456;51.840;12.184;2024-01-07T09:05:45;-1.20;99.40
2893;DHT22;1456;51.840;12.184;2024-01-07T09:08:11;-1.20;99.90
2893;DHT22;1456;51.840;12.184;2024-01-07T09:10:40;-1.20;99.30
2893;DHT22;1456;51.840;12.184;2024-01-07T09:13:05;-1.10;99.70
2893;DHT22;1456;51.840;12.184;2024-01-07T09:15:31;-1.10;99.60
2893;DHT22;1456;51.840;12.184;2024-01-07T09:17:57;-1.00;99.10
2893;DHT22;1456;51.840;12.184;2024-01-07T09:20:23;-0.80;99.00
2893;DHT22;1456;51.840;12.184;2024-01-07T09:22:48;-0.80;99.60
2893;DHT22;1456;51.840;12.184;2024-01-07T09:25:14;-0.80;98.90
2893;DHT22;1456;51.840;12.184;2024-01-07T09:27:40;-0.90;98.90
2893;DHT22;1456;51.840;12.184;2024-01-07T09:30:06;-0.70;98.80
2893;DHT22;1456;51.840;12.184;2024-01-07T09:32:32;-0.70;98.00
2893;DHT22;1456;51.840;12.184;2024-01-07T09:34:57;-0.70;98.70
2893;DHT22;1456;51.840;12.184;2024-01-07T09:37:23;-0.70;98.70
2893;DHT22;1456;51.840;12.184;2024-01-07T09:39:49;-0.60;98.80
2893;DHT22;1456;51.840;12.184;2024-01-07T09:42:18;-0.60;98.40
2893;DHT22;1456;51.840;12.184;2024-01-07T09:44:45;-0.70;97.90
2893;DHT22;1456;51.840;12.184;2024-01-07T09:47:14;-0.80;98.20
2893;DHT22;1456;51.840;12.184;2024-01-07T09:49:42;-0.80;99.20
2893;DHT22;1456;51.840;12.184;2024-01-07T09:52:11;-0.70;98.60
2893;DHT22;1456;51.840;12.184;2024-01-07T09:54:37;-0.50;98.60
2893;DHT22;1456;51.840;12.184;2024-01-07T09:57:09;-0.50;98.10
2893;DHT22;1456;51.840;12.184;2024-01-07T09:59:37;-0.60;97.80
2893;DHT22;1456;51.840;12.184;2024-01-07T10:02:03;-0.60;98.00
2893;DHT22;1456;51.840;12.184;2024-01-07T10:04:29;-0.70;97.80
2893;DHT22;1456;51.840;12.184;2024-01-07T10:06:55;-0.70;97.70
2893;DHT22;1456;51.840;12.184;2024-01-07T10:09:28;-0.60;98.00
2893;DHT22;1456;51.840;12.184;2024-01-07T10:11:54;-0.40;98.30
2893;DHT22;1456;51.840;12.184;2024-01-07T10:14:20;-0.30;97.80
2893;DHT22;1456;51.840;12.184;2024-01-07T10:16:50;-0.40;97.30
2893;DHT22;1456;51.840;12.184;2024-01-07T10:19:25;-0.30;98.20
2893;DHT22;1456;51.840;12.184;2024-01-07T10:22:04;0.00;98.40
2893;DHT22;1456;51.840;12.184;2024-01-07T10:24:41;0.00;97.20
2893;DHT22;1456;51.840;12.184;2024-01-07T10:27:07;0.10;97.70
2893;DHT22;1456;51.840;12.184;2024-01-07T10:29:33;0.10;97.40
2893;DHT22;1456;51.840;12.184;2024-01-07T10:32:00;0.20;97.40
2893;DHT22;1456;51.840;12.184;2024-01-07T10:34:37;0.10;96.50
2893;DHT22;1456;51.840;12.184;2024-01-07T10:37:04;0.20;96.80
2893;DHT22;1456;51.840;12.184;2024-01-07T10:39:33;0.20;96.50
2893;DHT22;1456;51.840;12.184;2024-01-07T10:41:59;0.40;96.70
2893;DHT22;1456;51.840;12.184;2024-01-07T10:44:32;0.40;96.70
2893;DHT22;1456;51.840;12.184;2024-01-07T10:46:58;0.40;96.30
2893;DHT22;1456;51.840;12.184;2024-01-07T10:49:27;0.40;95.90
2893;DHT22;1456;51.840;12.184;2024-01-07T10:52:03;0.60;96.40
2893;DHT22;1456;51.840;12.184;2024-01-07T10:54:34;0.40;95.50
2893;DHT22;1456;51.840;12.184;2024-01-07T10:57:32;0.40;95.50
2893;DHT22;1456;51.840;12.184;2024-01-07T11:00:00;0.70;95.90
2893;DHT22;1456;51.840;12.184;2024-01-07T11:02:26;1.20;95.00
2893;DHT22;1456;51.840;12.184;2024-01-07T11:05:30;1.30;94.50
2893;DHT22;1456;51.840;12.184;2024-01-07T11:08:01;1.50;94.50
2893;DHT22;1456;51.840;12.184;2024-01-07T11:10:38;1.70;94.40
2893;DHT22;1456;51.840;12.184;2024-01-07T11:13:05;1.70;94.00
2893;DHT22;1456;51.840;12.184;2024-01-07T11:18:22;1.70;93.60
2893;DHT22;1456;51.840;12.184;2024-01-07T11:20:48;1.50;94.10
2893;DHT22;1456;51.840;12.184;2024-01-07T11:23:33;1.40;93.10
2893;DHT22;1456;51.840;12.184;2024-01-07T11:26:00;1.30;93.90
2893;DHT22;1456;51.840;12.184;2024-01-07T11:28:49;1.40;94.30
2893;DHT22;1456;51.840;12.184;2024-01-07T11:31:17;1.70;94.00
2893;DHT22;1456;51.840;12.184;2024-01-07T11:33:44;2.00;93.70
2893;DHT22;1456;51.840;12.184;2024-01-07T11:36:17;2.20;92.90
2893;DHT22;1456;51.840;12.184;2024-01-07T11:38:48;2.10;93.00
2893;DHT22;1456;51.840;12.184;2024-01-07T11:41:15;2.00;92.00
2893;DHT22;1456;51.840;12.184;2024-01-07T11:43:57;1.90;92.80
2893;DHT22;1456;51.840;12.184;2024-01-07T11:46:28;1.80;92.80
2893;DHT22;1456;51.840;12.184;2024-01-07T11:48:56;1.70;93.10
2893;DHT22;1456;51.840;12.184;2024-01-07T11:51:29;1.50;93.40
2893;DHT22;1456;51.840;12.184;2024-01-07T11:53:59;1.40;93.30
2893;DHT22;1456;51.840;12.184;2024-01-07T11:56:25;1.30;94.20
2893;DHT22;1456;51.840;12.184;2024-01-07T11:58:53;1.20;94.00
2893;DHT22;1456;51.840;12.184;2024-01-07T12:01:19;1.10;94.10
2893;DHT22;1456;51.840;12.184;2024-01-07T12:03:45;1.10;94.00
2893;DHT22;1456;51.840;12.184;2024-01-07T12:06:12;1.00;94.30
2893;DHT22;1456;51.840;12.184;2024-01-07T12:08:43;0.90;94.40
2893;DHT22;1456;51.840;12.184;2024-01-07T12:11:12;0.80;94.40
2893;DHT22;1456;51.840;12.184;2024-01-07T12:13:38;0.90;94.70
2893;DHT22;1456;51.840;12.184;2024-01-07T12:16:08;1.00;95.10
2893;DHT22;1456;51.840;12.184;2024-01-07T12:18:36;0.90;95.50
2893;DHT22;1456;51.840;12.184;2024-01-07T12:21:03;1.00;95.50
2893;DHT22;1456;51.840;12.184;2024-01-07T12:23:34;0.70;95.20
2893;DHT22;1456;51.840;12.184;2024-01-07T12:26:11;0.80;95.50
2893;DHT22;1456;51.840;12.184;2024-01-07T12:28:38;0.60;95.50
2893;DHT22;1456;51.840;12.184;2024-01-07T12:31:04;0.60;95.90
2893;DHT22;1456;51.840;12.184;2024-01-07T12:33:31;0.50;96.40
2893;DHT22;1456;51.840;12.184;2024-01-07T12:35:57;0.60;96.40
2893;DHT22;1456;51.840;12.184;2024-01-07T12:38:26;0.60;96.20
2893;DHT22;1456;51.840;12.184;2024-01-07T12:40:56;0.50;96.30
2893;DHT22;1456;51.840;12.184;2024-01-07T12:43:25;0.40;96.40
2893;DHT22;1456;51.840;12.184;2024-01-07T12:45:51;0.30;96.80
2893;DHT22;1456;51.840;12.184;2024-01-07T12:48:16;0.30;97.00
2893;DHT22;1456;51.840;12.184;2024-01-07T12:50:42;0.20;97.50
2893;DHT22;1456;51.840;12.184;2024-01-07T12:53:08;0.20;97.60
2893;DHT22;1456;51.840;12.184;2024-01-07T12:55:33;0.40;98.40
2893;DHT22;1456;51.840;12.184;2024-01-07T12:58:00;0.40;98.00
2893;DHT22;1456;51.840;12.184;2024-01-07T13:00:26;0.40;98.50
2893;DHT22;1456;51.840;12.184;2024-01-07T13:02:54;0.20;98.20
2893;DHT22;1456;51.840;12.184;2024-01-07T13:05:20;0.10;98.60
2893;DHT22;1456;51.840;12.184;2024-01-07T13:07:46;0.10;98.80
2893;DHT22;1456;51.840;12.184;2024-01-07T13:10:12;0.10;99.00
2893;DHT22;1456;51.840;12.184;2024-01-07T13:12:38;0.20;99.60
2893;DHT22;1456;51.840;12.184;2024-01-07T13:15:04;0.10;99.30
2893;DHT22;1456;51.840;12.184;2024-01-07T13:17:30;0.10;99.50
2893;DHT22;1456;51.840;12.184;2024-01-07T13:19:58;0.00;99.70
2893;DHT22;1456;51.840;12.184;2024-01-07T13:22:24;0.00;99.90
2893;DHT22;1456;51.840;12.184;2024-01-07T13:24:50;0.00;99.90
2893;DHT22;1456;51.840;12.184;2024-01-07T13:27:16;0.00;99.90
2893;DHT22;1456;51.840;12.184;2024-01-07T13:29:44;0.00;99.90
2893;DHT22;1456;51.840;12.184;2024-01-07T13:32:12;0.10;99.90
2893;DHT22;1456;51.840;12.184;2024-01-07T13:34:40;0.10;99.90
2893;DHT22;1456;51.840;12.184;2024-01-07T13:37:06;0.10;99.90
2893;DHT22;1456;51.840;12.184;2024-01-07T13:39:31;0.00;99.90
2893;DHT22;1456;51.840;12.184;2024-01-07T13:41:57;0.00;99.90
2893;DHT22;1456;51.840;12.184;2024-01-07T13:44:23;0.00;99.90
2893;DHT22;1456;51.840;12.184;2024-01-07T13:46:48;0.10;99.90
2893;DHT22;1456;51.840;12.184;2024-01-07T13:49:15;-0.10;99.90
2893;DHT22;1456;51.840;12.184;2024-01-07T13:51:42;-0.10;99.90
2893;DHT22;1456;51.840;12.184;2024-01-07T13:54:08;-0.20;99.90
2893;DHT22;1456;51.840;12.184;2024-01-07T13:56:36;-0.20;99.90
2893;DHT22;1456;51.840;12.184;2024-01-07T13:59:02;-0.20;99.90
2893;DHT22;1456;51.840;12.184;2024-01-07T14:01:29;-0.20;99.90
2893;DHT22;1456;51.840;12.184;2024-01-07T14:03:55;-0.20;99.90
2893;DHT22;1456;51.840;12.184;2024-01-07T14:06:21;-0.20;99.90
2893;DHT22;1456;51.840;12.184;2024-01-07T14:08:47;-0.20;99.90
2893;DHT22;1456;51.840;12.184;2024-01-07T14:11:12;-0.10;99.90
2893;DHT22;1456;51.840;12.184;2024-01-07T14:13:38;-0.20;99.90
2893;DHT22;1456;51.840;12.184;2024-01-07T14:16:04;0.00;99.90
2893;DHT22;1456;51.840;12.184;2024-01-07T14:18:29;-0.20;99.90
2893;DHT22;1456;51.840;12.184;2024-01-07T14:20:55;-0.20;99.90
2893;DHT22;1456;51.840;12.184;2024-01-07T14:23:21;-0.20;99.90
2893;DHT22;1456;51.840;12.184;2024-01-07T14:25:47;-0.10;99.90
2893;DHT22;1456;51.840;12.184;2024-01-07T14:28:13;-0.10;99.90
2893;DHT22;1456;51.840;12.184;2024-01-07T14:30:39;0.00;99.90
2893;DHT22;1456;51.840;12.184;2024-01-07T14:33:04;0.00;99.90
2893;DHT22;1456;51.840;12.184;2024-01-07T14:35:30;0.00;99.90
2893;DHT22;1456;51.840;12.184;2024-01-07T14:37:58;0.00;99.90
2893;DHT22;1456;51.840;12.184;2024-01-07T14:40:25;-0.10;99.90
2893;DHT22;1456;51.840;12.184;2024-01-07T14:42:50;-0.10;99.90
2893;DHT22;1456;51.840;12.184;2024-01-07T14:45:20;-0.10;99.90
2893;DHT22;1456;51.840;12.184;2024-01-07T14:47:45;-0.20;99.90
2893;DHT22;1456;51.840;12.184;2024-01-07T14:50:11;-0.20;99.90
2893;DHT22;1456;51.840;12.184;2024-01-07T14:52:37;0.00;99.90
2893;DHT22;1456;51.840;12.184;2024-01-07T14:55:02;-0.10;99.90
2893;DHT22;1456;51.840;12.184;2024-01-07T14:57:28;-0.20;99.90
2893;DHT22;1456;51.840;12.184;2024-01-07T14:59:54;-0.10;99.90
2893;DHT22;1456;51.840;12.184;2024-01-07T15:02:19;-0.10;99.90
2893;DHT22;1456;51.840;12.184;2024-01-07T15:04:46;-0.20;99.90
2893;DHT22;1456;51.840;12.184;2024-01-07T15:07:12;-0.20;99.90
2893;DHT22;1456;51.840;12.184;2024-01-07T15:09:40;-0.20;99.90
2893;DHT22;1456;51.840;12.184;2024-01-07T15:12:07;-0.20;99.90
2893;DHT22;1456;51.840;12.184;2024-01-07T15:14:32;-0.20;99.90
2893;DHT22;1456;51.840;12.184;2024-01-07T15:16:58;-0.20;99.90
2893;DHT22;1456;51.840;12.184;2024-01-07T15:19:24;-0.10;99.90
2893;DHT22;1456;51.840;12.184;2024-01-07T15:21:50;-0.10;99.90
2893;DHT22;1456;51.840;12.184;2024-01-07T15:24:15;-0.10;99.90
2893;DHT22;1456;51.840;12.184;2024-01-07T15:26:41;0.00;99.90
2893;DHT22;1456;51.840;12.184;2024-01-07T15:29:07;-0.10;99.90
2893;DHT22;1456;51.840;12.184;2024-01-07T15:31:32;-0.10;99.90
2893;DHT22;1456;51.840;12.184;2024-01-07T15:33:58;-0.10;99.90
2893;DHT22;1456;51.840;12.184;2024-01-07T15:36:23;0.00;99.90
2893;DHT22;1456;51.840;12.184;2024-01-07T15:38:49;0.00;99.90
2893;DHT22;1456;51.840;12.184;2024-01-07T15:41:15;-0.10;99.90
2893;DHT22;1456;51.840;12.184;2024-01-07T15:43:40;-0.10;99.90
2893;DHT22;1456;51.840;12.184;2024-01-07T15:46:06;-0.10;99.90
2893;DHT22;1456;51.840;12.184;2024-01-07T15:48:32;-0.10;99.90